Time;durP1;ratioP1;P1;durP2;ratioP2;P2;SDS_P1;SDS_P2;PMS_P1;PMS_P2;Temp;Humidity;BMP_temperature;BMP_pressure;BME280_temperature;BME280_humidity;BME280_pressure;Samples;Min_cycle;Max_cycle;Signal;HPM_P1;HPM_P2
2023/04/01 00:02:01;;;;;;;0.10;0.10;;;;;;;21.33;38.62;98417.09;4541017;28;20033;-56
2023/04/01 00:04:12;;;;;;;0.40;0.10;;;;;;;21.33;38.15;98416.25;4541016;28;20029;-56
2023/04/01 00:06:22;;;;;;;0.50;0.20;;;;;;;21.33;38.33;98422.00;4540644;28;20060;-56
2023/04/01 00:08:33;;;;;;;0.25;0.20;;;;;;;21.32;38.02;98421.22;4539175;28;20033;-56
2023/04/01 00:10:45;;;;;;;0.10;0.10;;;;;;;21.29;37.87;98419.19;4539380;28;20039;-56
2023/04/01 00:12:55;;;;;;;0.10;0.10;;;;;;;21.31;38.10;98424.50;4541009;28;20036;-56
2023/04/01 00:15:08;;;;;;;0.20;0.20;;;;;;;21.19;38.04;98397.13;4539193;28;20052;-56
2023/04/01 00:17:19;;;;;;;0.35;0.10;;;;;;;21.31;37.98;98425.28;4538986;28;21483;-56
2023/04/01 00:19:29;;;;;;;0.20;0.10;;;;;;;21.26;37.86;98404.88;4541334;28;20098;-55
2023/04/01 00:21:40;;;;;;;0.13;0.10;;;;;;;21.31;37.82;98413.81;4541126;28;20061;-56
2023/04/01 00:23:50;;;;;;;0.10;0.10;;;;;;;21.31;38.16;98404.41;4537990;28;20120;-56
2023/04/01 00:26:03;;;;;;;0.20;0.10;;;;;;;21.26;38.18;98402.81;4539992;28;20032;-56
2023/04/01 00:28:18;;;;;;;0.22;0.20;;;;;;;21.31;37.72;98402.34;4541946;28;20036;-55
2023/04/01 00:30:28;;;;;;;0.10;0.10;;;;;;;21.26;37.71;98394.22;4541045;28;20936;-56
2023/04/01 00:32:39;;;;;;;0.30;0.20;;;;;;;21.28;37.84;98391.72;4540215;28;20037;-56
2023/04/01 00:34:51;;;;;;;0.20;0.15;;;;;;;21.29;37.57;98399.09;4522793;28;20068;-56
2023/04/01 00:37:02;;;;;;;0.30;0.10;;;;;;;21.30;38.24;98400.72;4539364;28;20143;-57
2023/04/01 00:39:12;;;;;;;0.10;0.10;;;;;;;21.29;37.47;98399.09;4541399;28;20051;-56
2023/04/01 00:41:23;;;;;;;0.10;0.10;;;;;;;21.25;37.60;98395.44;4521686;28;20045;-56
2023/04/01 00:43:34;;;;;;;0.10;0.10;;;;;;;21.30;37.79;98406.47;4540480;28;20497;-56
2023/04/01 00:45:47;;;;;;;0.00;0.00;;;;;;;21.29;37.93;98399.09;4506679;28;20063;-55
2023/04/01 00:48:01;;;;;;;0.43;0.10;;;;;;;21.29;37.37;98404.03;4539376;28;20457;-55
2023/04/01 00:50:11;;;;;;;0.10;0.10;;;;;;;21.28;37.39;98400.31;4538638;28;20044;-56
2023/04/01 00:52:25;;;;;;;0.10;0.10;;;;;;;21.27;37.53;98395.00;4523310;28;20037;-55
2023/04/01 00:54:37;;;;;;;0.10;0.10;;;;;;;21.26;37.67;98390.53;4539941;28;20035;-56
2023/04/01 00:56:57;;;;;;;0.10;0.10;;;;;;;21.29;37.56;98398.28;4542284;28;20036;-57
2023/04/01 00:59:12;;;;;;;0.00;0.00;;;;;;;21.28;37.42;98403.19;4525297;28;20025;-56
2023/04/01 01:01:24;;;;;;;0.10;0.10;;;;;;;21.28;37.38;98388.06;4542049;28;20088;-55
2023/04/01 01:03:35;;;;;;;0.10;0.10;;;;;;;21.24;37.26;98395.88;4543061;28;20128;-56
2023/04/01 01:06:12;;;;;;;0.22;0.22;;;;;;;21.26;37.72;98399.97;4525485;28;20068;-57
2023/04/01 01:08:50;;;;;;;0.10;0.10;;;;;;;21.23;37.80;98383.56;4541521;28;20072;-57
2023/04/01 01:11:01;;;;;;;0.10;0.10;;;;;;;21.26;37.10;98399.97;4488196;28;20038;-57
2023/04/01 01:13:35;;;;;;;0.10;0.10;;;;;;;21.26;37.15;98393.41;4534922;28;20068;-57
2023/04/01 01:15:51;;;;;;;0.10;0.10;;;;;;;21.26;37.16;98399.97;4542591;28;20108;-57
2023/04/01 01:18:11;;;;;;;;;;;;;;;21.27;37.02;98389.28;4524630;28;20044;-56
2023/04/01 01:20:43;;;;;;;0.00;0.00;;;;;;;21.26;37.47;98387.66;4524547;28;20772;-57
2023/04/01 01:23:23;;;;;;;0.10;0.10;;;;;;;21.23;37.50;98395.03;4545111;28;20603;-56
2023/04/01 01:26:04;;;;;;;0.10;0.10;;;;;;;21.19;37.22;98374.19;4525559;28;20060;-57
2023/04/01 01:28:33;;;;;;;0.15;0.10;;;;;;;21.25;37.66;98386.84;4541543;28;20037;-56
2023/04/01 01:30:54;;;;;;;0.30;0.17;;;;;;;21.24;37.48;98376.59;4524827;28;20041;-56
2023/04/01 01:33:43;;;;;;;0.28;0.10;;;;;;;21.23;37.73;98377.81;4523185;28;20601;-57
2023/04/01 01:35:57;;;;;;;0.10;0.10;;;;;;;21.21;37.77;98374.59;4523242;28;20049;-56
2023/04/01 01:38:17;;;;;;;0.20;0.10;;;;;;;21.24;37.60;98390.13;4542717;28;20044;-56
2023/04/01 01:40:35;;;;;;;0.10;0.10;;;;;;;21.23;37.99;98374.94;4542362;28;20118;-57
2023/04/01 01:42:54;;;;;;;0.10;0.10;;;;;;;21.23;37.50;98386.44;4541490;28;20037;-57
2023/04/01 01:45:07;;;;;;;0.10;0.10;;;;;;;21.22;37.48;98379.06;4523082;28;20257;-57
2023/04/01 01:47:20;;;;;;;0.10;0.10;;;;;;;21.23;37.49;98382.78;4523364;28;20568;-57
2023/04/01 01:49:33;;;;;;;0.10;0.10;;;;;;;21.21;37.39;98385.25;4506972;28;20519;-56
2023/04/01 01:51:43;;;;;;;0.10;0.10;;;;;;;21.22;37.22;98378.25;4542572;28;20037;-56
2023/04/01 01:53:56;;;;;;;0.10;0.10;;;;;;;21.23;37.52;98377.81;4542316;28;20029;-56
2023/04/01 01:56:07;;;;;;;0.10;0.10;;;;;;;21.21;37.17;98379.50;4523984;28;20450;-57
2023/04/01 01:58:29;;;;;;;0.00;0.00;;;;;;;21.20;37.59;98378.69;4540549;28;20854;-56
2023/04/01 02:00:44;;;;;;;0.10;0.10;;;;;;;21.20;37.42;98372.94;4523710;28;20259;-57
2023/04/01 02:02:57;;;;;;;0.10;0.10;;;;;;;21.21;37.72;98374.59;4539296;28;20025;-56
2023/04/01 02:05:11;;;;;;;0.10;0.10;;;;;;;21.20;37.36;98377.88;4542641;28;20075;-56
2023/04/01 02:07:28;;;;;;;0.10;0.10;;;;;;;21.20;37.37;98383.63;4540097;28;20029;-56
2023/04/01 02:09:39;;;;;;;0.10;0.10;;;;;;;21.15;37.50;98373.44;4540098;28;20032;-56
2023/04/01 02:12:00;;;;;;;0.10;0.10;;;;;;;21.20;36.97;98384.41;4507222;28;20042;-57
2023/04/01 02:14:16;;;;;;;0.10;0.10;;;;;;;21.20;37.11;98384.41;4524485;28;20036;-56
2023/04/01 02:16:32;;;;;;;0.10;0.10;;;;;;;21.19;37.07;98382.78;4541047;28;20290;-56
2023/04/01 02:18:45;;;;;;;0.00;0.00;;;;;;;21.19;37.26;98379.94;4524498;28;20033;-56
2023/04/01 02:20:59;;;;;;;0.15;0.10;;;;;;;21.13;36.91;98367.28;4538822;28;20071;-56
2023/04/01 02:23:10;;;;;;;0.08;0.08;;;;;;;21.14;37.16;98368.09;4542272;28;20044;-56
2023/04/01 02:25:25;;;;;;;0.03;0.03;;;;;;;21.16;37.09;98377.91;4522932;28;20036;-57
2023/04/01 02:27:36;;;;;;;0.20;0.03;;;;;;;21.18;37.01;98381.19;4540585;28;20588;-56
2023/04/01 02:29:47;;;;;;;0.17;0.10;;;;;;;21.19;37.06;98373.38;4541549;28;20078;-57
2023/04/01 02:31:58;;;;;;;0.10;0.10;;;;;;;21.13;37.29;98363.59;4501760;28;1096575;-57
2023/04/01 02:34:09;;;;;;;0.20;0.15;;;;;;;21.18;37.42;98377.50;4540632;28;20612;-56
2023/04/01 02:36:20;;;;;;;0.10;0.10;;;;;;;21.18;37.08;98372.56;4542245;28;20036;-57
2023/04/01 02:38:31;;;;;;;0.13;0.10;;;;;;;21.18;37.48;98374.63;4543068;28;20037;-56
2023/04/01 02:40:49;;;;;;;0.03;0.03;;;;;;;21.14;37.41;98366.03;4523573;28;20596;-56
2023/04/01 02:42:59;;;;;;;0.20;0.10;;;;;;;21.18;37.22;98368.88;4543486;28;20036;-56
2023/04/01 02:45:11;;;;;;;0.10;0.08;;;;;;;21.16;37.05;98366.44;4525236;28;20575;-57
2023/04/01 02:47:21;;;;;;;0.10;0.10;;;;;;;21.14;37.14;98368.91;4542138;28;20079;-56
2023/04/01 02:49:32;;;;;;;0.52;0.10;;;;;;;21.14;37.39;98363.16;4542560;28;20037;-56
2023/04/01 02:51:42;;;;;;;0.10;0.10;;;;;;;21.14;37.08;98368.91;4542408;28;20084;-56
2023/04/01 02:53:53;;;;;;;0.10;0.10;;;;;;;21.14;37.50;98368.09;4530453;28;20519;-57
2023/04/01 02:56:04;;;;;;;0.10;0.10;;;;;;;21.14;37.39;98374.66;4524489;28;20581;-56
2023/04/01 02:58:14;;;;;;;0.10;0.10;;;;;;;21.15;37.18;98381.22;4539993;28;20029;-56
2023/04/01 03:00:26;;;;;;;0.10;0.10;;;;;;;21.16;37.25;98382.81;4539746;28;20044;-57
2023/04/01 03:02:38;;;;;;;0.08;0.08;;;;;;;21.13;37.06;98372.19;4542480;28;20036;-56
2023/04/01 03:04:48;;;;;;;0.10;0.10;;;;;;;21.13;37.46;98373.03;4523527;28;20969;-57
2023/04/01 03:06:59;;;;;;;0.10;0.10;;;;;;;21.14;37.65;98373.81;4540345;28;20176;-57
2023/04/01 03:09:09;;;;;;;0.30;0.10;;;;;;;21.11;37.64;98375.50;4540254;28;20024;-57
2023/04/01 03:11:21;;;;;;;0.10;0.10;;;;;;;21.10;37.78;98365.28;4522182;28;20774;-55
2023/04/01 03:13:32;;;;;;;0.10;0.10;;;;;;;21.14;37.38;98380.38;4541796;28;20569;-57
2023/04/01 03:15:42;;;;;;;0.05;0.05;;;;;;;21.13;37.79;98387.38;4540665;28;20567;-56
2023/04/01 03:17:53;;;;;;;0.00;0.00;;;;;;;21.08;37.92;98370.63;4543160;28;20037;-56
2023/04/01 03:20:04;;;;;;;0.13;0.10;;;;;;;21.03;37.76;98362.47;4540180;28;20031;-57
2023/04/01 03:22:15;;;;;;;0.10;0.10;;;;;;;21.10;37.80;98385.34;4523511;28;20640;-56
2023/04/01 03:24:27;;;;;;;0.00;0.00;;;;;;;21.12;37.61;98382.84;4541929;28;20048;-57
2023/04/01 03:26:37;;;;;;;0.10;0.10;;;;;;;21.12;37.97;98379.97;4539347;28;20709;-56
2023/04/01 03:28:48;;;;;;;0.10;0.10;;;;;;;21.12;38.16;98379.97;4539578;28;20029;-56
2023/04/01 03:30:58;;;;;;;0.15;0.10;;;;;;;21.11;38.10;98386.97;4522434;28;20080;-56
2023/04/01 03:33:09;;;;;;;0.10;0.10;;;;;;;21.11;38.21;98386.97;4539577;28;20770;-57
2023/04/01 03:35:19;;;;;;;0.10;0.10;;;;;;;21.08;38.07;98382.09;4541879;28;20765;-55
2023/04/01 03:37:30;;;;;;;0.10;0.10;;;;;;;21.11;37.71;98389.84;4521218;28;20072;-56
2023/04/01 03:39:40;;;;;;;0.10;0.10;;;;;;;21.10;38.11;98385.34;4539089;28;20025;-57
2023/04/01 03:41:51;;;;;;;0.10;0.10;;;;;;;21.11;37.89;98391.88;4526511;28;20461;-56
2023/04/01 03:44:01;;;;;;;0.10;0.10;;;;;;;21.10;37.80;98396.81;4539282;28;20037;-56
2023/04/01 03:46:17;;;;;;;0.10;0.10;;;;;;;21.09;37.51;98395.19;4539735;28;20044;-56
2023/04/01 03:48:27;;;;;;;0.10;0.10;;;;;;;21.09;37.92;98388.66;4538231;28;20036;-56
2023/04/01 03:50:38;;;;;;;0.00;0.00;;;;;;;21.09;37.38;98395.19;4539060;28;20063;-56
2023/04/01 03:52:48;;;;;;;0.03;0.03;;;;;;;21.06;38.14;98389.50;4538765;28;21282;-57
2023/04/01 03:54:59;;;;;;;0.03;0.00;;;;;;;21.10;37.74;98387.41;4540521;28;20033;-58
2023/04/01 03:57:09;;;;;;;0.10;0.10;;;;;;;20.93;37.75;98366.19;4521452;28;20025;-56
2023/04/01 03:59:20;;;;;;;0.03;0.03;;;;;;;21.01;37.72;98375.59;4539373;28;20035;-56
2023/04/01 04:01:31;;;;;;;0.00;0.00;;;;;;;21.07;38.08;98389.06;4522926;28;20088;-56
2023/04/01 04:03:41;;;;;;;0.15;0.00;;;;;;;21.05;38.16;98385.81;4538395;28;20448;-56
2023/04/01 04:05:52;;;;;;;0.10;0.10;;;;;;;21.06;38.28;98380.91;4540521;28;20040;-56
2023/04/01 04:08:03;;;;;;;0.08;0.08;;;;;;;21.03;37.92;98385.41;4541026;28;20742;-56
2023/04/01 04:10:13;;;;;;;0.10;0.10;;;;;;;21.08;38.02;98395.59;4526591;28;20029;-56
2023/04/01 04:12:24;;;;;;;0.10;0.10;;;;;;;21.08;38.23;98392.72;4542167;28;20033;-56
2023/04/01 04:14:35;;;;;;;0.10;0.10;;;;;;;21.04;38.13;98387.03;4538798;28;20540;-56
2023/04/01 04:16:47;;;;;;;0.08;0.08;;;;;;;21.04;38.43;98395.63;4539924;28;20037;-56
2023/04/01 04:18:57;;;;;;;0.10;0.08;;;;;;;21.06;38.08;98398.91;4541099;28;20481;-57
2023/04/01 04:21:12;;;;;;;0.00;0.00;;;;;;;21.06;38.57;98395.22;4538634;28;20055;-56
2023/04/01 04:23:22;;;;;;;0.00;0.00;;;;;;;21.05;38.08;98400.16;4522703;28;20038;-55
2023/04/01 04:25:33;;;;;;;0.00;0.00;;;;;;;21.06;38.23;98393.16;4539998;28;20303;-56
2023/04/01 04:27:44;;;;;;;0.10;0.10;;;;;;;21.03;38.15;98384.56;4538512;28;20836;-56
2023/04/01 04:29:56;;;;;;;0.00;0.00;;;;;;;21.01;38.21;98387.88;4538154;28;20037;-55
2023/04/01 04:32:07;;;;;;;0.10;0.10;;;;;;;21.02;38.07;98380.09;4540078;28;20037;-57
2023/04/01 04:34:18;;;;;;;0.10;0.10;;;;;;;21.01;37.65;98390.75;4529795;28;20800;-55
2023/04/01 04:36:28;;;;;;;0.32;0.10;;;;;;;21.03;38.09;98391.13;4539958;28;20029;-56
2023/04/01 04:38:39;;;;;;;0.03;0.00;;;;;;;21.02;38.12;98386.66;4522630;28;20181;-55
2023/04/01 04:40:49;;;;;;;0.00;0.00;;;;;;;20.98;37.83;98382.19;4539207;28;20036;-56
2023/04/01 04:43:00;;;;;;;0.00;0.00;;;;;;;21.04;37.58;98392.75;4521624;28;20489;-56
2023/04/01 04:45:12;;;;;;;0.00;0.00;;;;;;;21.02;37.50;98397.31;4522394;28;20083;-56
2023/04/01 04:47:26;;;;;;;0.00;0.00;;;;;;;21.00;37.40;98385.44;4522342;28;21220;-56
2023/04/01 04:49:36;;;;;;;0.22;0.00;;;;;;;21.02;37.04;98395.25;4538626;28;20029;-55
2023/04/01 04:51:52;;;;;;;0.08;0.08;;;;;;;21.02;37.28;98385.81;4522285;28;20036;-55
2023/04/01 04:54:06;;;;;;;0.00;0.00;;;;;;;21.01;37.32;98387.88;4538686;28;20033;-56
2023/04/01 04:56:35;;;;;;;0.00;0.00;;;;;;;21.03;37.28;98390.31;4540536;28;20033;-56
2023/04/01 04:58:51;;;;;;;0.00;0.00;;;;;;;20.89;37.25;98365.44;4522437;28;20036;-56
2023/04/01 05:01:11;;;;;;;0.22;0.10;;;;;;;21.02;36.99;98395.25;4530992;28;20114;-57
2023/04/01 05:03:23;;;;;;;0.10;0.10;;;;;;;20.94;36.90;98384.22;4538949;28;20028;-55
2023/04/01 05:05:34;;;;;;;0.20;0.20;;;;;;;21.01;37.17;98399.34;4521389;28;20029;-56
2023/04/01 05:07:45;;;;;;;0.13;0.10;;;;;;;20.97;37.15;98389.97;4522118;28;20029;-56
2023/04/01 05:09:55;;;;;;;0.40;0.40;;;;;;;21.00;37.13;98409.19;4540988;28;20091;-56
2023/04/01 05:12:06;;;;;;;0.57;0.57;;;;;;;20.98;37.18;98405.13;4520802;28;20095;-55
2023/04/01 05:14:36;;;;;;;0.52;0.52;;;;;;;20.94;36.73;98398.56;4507532;28;20044;-55
2023/04/01 05:16:53;;;;;;;0.80;0.80;;;;;;;20.98;36.83;98410.88;4537726;28;20099;-56
2023/04/01 05:19:04;;;;;;;0.30;0.30;;;;;;;20.98;36.78;98408.78;4521021;28;20051;-55
2023/04/01 05:21:16;;;;;;;0.20;0.20;;;;;;;20.98;36.70;98411.66;4538147;28;20768;-55
2023/04/01 05:23:27;;;;;;;0.10;0.10;;;;;;;20.98;36.95;98414.53;4522237;28;20049;-55
2023/04/01 05:25:38;;;;;;;0.22;0.22;;;;;;;20.98;36.75;98414.53;4521191;28;20116;-55
2023/04/01 05:27:48;;;;;;;0.20;0.20;;;;;;;20.97;36.60;98415.78;4537864;28;20032;-56
2023/04/01 05:29:59;;;;;;;0.10;0.10;;;;;;;20.97;37.00;98409.22;4537450;28;20017;-56
2023/04/01 05:32:32;;;;;;;0.10;0.10;;;;;;;20.96;36.88;98414.16;4532197;28;20148;-57
2023/04/01 05:34:43;;;;;;;0.40;0.40;;;;;;;20.92;37.29;98410.47;4538291;28;20043;-57
2023/04/01 05:36:53;;;;;;;0.20;0.20;;;;;;;20.97;37.05;98418.66;4540191;28;20120;-60
2023/04/01 05:39:04;;;;;;;0.15;0.10;;;;;;;20.96;37.04;98417.03;4520627;28;20040;-55
2023/04/01 05:41:15;;;;;;;0.10;0.10;;;;;;;20.96;37.11;98425.63;4537563;28;20041;-56
2023/04/01 05:43:29;;;;;;;0.20;0.20;;;;;;;20.94;37.25;98421.50;4539535;28;20602;-57
2023/04/01 05:45:43;;;;;;;0.20;0.20;;;;;;;20.96;37.25;98425.63;4541516;28;20033;-58
2023/04/01 05:47:59;;;;;;;0.10;0.10;;;;;;;20.96;37.44;98425.63;4543686;28;20045;-56
2023/04/01 05:50:11;;;;;;;0.20;0.20;;;;;;;20.94;37.85;98421.50;4541739;28;20114;-56
2023/04/01 05:52:22;;;;;;;0.17;0.17;;;;;;;20.92;37.58;98424.78;4540091;28;20032;-57
2023/04/01 05:54:33;;;;;;;0.08;0.08;;;;;;;20.93;37.65;98428.50;4542152;28;20037;-57
2023/04/01 05:56:43;;;;;;;0.10;0.10;;;;;;;20.92;37.85;98427.66;4541377;28;20029;-56
2023/04/01 05:58:54;;;;;;;0.10;0.10;;;;;;;20.93;37.83;98420.69;4540749;28;20110;-56
2023/04/01 06:01:11;;;;;;;0.10;0.10;;;;;;;20.95;37.74;98429.69;4521109;28;20761;-56
2023/04/01 06:03:22;;;;;;;0.20;0.20;;;;;;;20.93;38.16;98431.34;4540273;28;20039;-56
2023/04/01 06:05:42;;;;;;;0.10;0.10;;;;;;;20.94;38.29;98439.53;4542601;28;20031;-56
2023/04/01 06:08:04;;;;;;;0.10;0.10;;;;;;;20.93;38.24;98435.03;4543625;28;20040;-56
2023/04/01 06:10:20;;;;;;;0.10;0.10;;;;;;;20.94;38.29;98438.72;4523076;28;20181;-56
2023/04/01 06:12:38;;;;;;;;;;;;;;;20.94;38.71;98439.53;4508871;28;20152;-55
2023/04/01 06:15:22;;;;;;;0.10;0.10;;;;;;;20.95;38.55;98446.91;4542448;28;20003;-55
2023/04/01 06:18:36;;;;;;;0.10;0.10;;;;;;;20.94;38.59;98448.13;4537161;28;20053;-55
2023/04/01 06:21:10;;;;;;;0.20;0.20;;;;;;;20.90;38.60;98435.88;4467371;28;20043;-55
2023/04/01 06:23:50;;;;;;;0.22;0.15;;;;;;;20.94;38.62;98447.31;4540432;28;20045;-55
2023/04/01 06:26:07;;;;;;;0.20;0.20;;;;;;;20.88;39.09;98435.50;4540876;28;20041;-56
2023/04/01 06:28:29;;;;;;;0.05;0.05;;;;;;;20.93;38.85;98449.34;4541295;28;20127;-56
2023/04/01 06:30:45;;;;;;;0.20;0.20;;;;;;;20.93;38.54;98451.44;4521383;28;20028;-55
2023/04/01 06:33:18;;;;;;;0.20;0.20;;;;;;;20.92;39.00;98447.75;4539340;28;20029;-54
2023/04/01 06:35:48;;;;;;;0.10;0.10;;;;;;;20.92;38.80;98452.66;4522303;28;20894;-57
2023/04/01 06:38:23;;;;;;;0.10;0.10;;;;;;;20.91;39.62;98448.16;4541048;28;20106;-56
2023/04/01 06:41:31;;;;;;;0.28;0.10;;;;;;;20.92;39.46;98450.59;4522221;28;20037;-55
2023/04/01 06:43:49;;;;;;;0.10;0.10;;;;;;;20.92;39.58;98459.22;4482994;28;20178;-56
2023/04/01 06:46:23;;;;;;;0.10;0.10;;;;;;;20.92;39.88;98456.34;4498353;28;20584;-56
2023/04/01 06:49:41;;;;;;;0.10;0.10;;;;;;;20.89;39.62;98459.22;4541421;28;20045;-56
2023/04/01 06:52:26;;;;;;;0.25;0.10;;;;;;;20.84;39.66;98451.91;4514130;28;20044;-56
2023/04/01 06:55:01;;;;;;;0.10;0.10;;;;;;;20.86;39.91;98460.91;4541505;28;20049;-57
2023/04/01 06:57:58;;;;;;;0.20;0.10;;;;;;;20.89;40.04;98468.66;4539516;28;20041;-55
2023/04/01 07:00:31;;;;;;;0.20;0.15;;;;;;;20.89;39.64;98468.66;4528044;28;20679;-55
2023/04/01 07:02:48;;;;;;;0.20;0.10;;;;;;;20.86;39.67;98466.63;4521717;28;20080;-56
2023/04/01 07:05:00;;;;;;;0.10;0.10;;;;;;;20.77;39.70;98454.81;4541473;28;20741;-56
2023/04/01 07:07:36;;;;;;;0.10;0.10;;;;;;;20.89;39.74;98471.53;4522556;28;20150;-55
2023/04/01 07:09:53;;;;;;;0.20;0.20;;;;;;;20.87;39.87;98478.94;4531482;28;20037;-56
2023/04/01 07:12:58;;;;;;;0.10;0.10;;;;;;;20.88;40.16;98466.22;4540355;28;20195;-56
2023/04/01 07:15:18;;;;;;;0.10;0.10;;;;;;;20.85;39.90;98464.19;4541300;28;20699;-56
2023/04/01 07:17:33;;;;;;;0.20;0.20;;;;;;;20.86;40.36;98472.38;4524758;28;20037;-55
2023/04/01 07:19:50;;;;;;;0.10;0.10;;;;;;;20.86;39.95;98474.41;4539925;28;20036;-56
2023/04/01 07:22:05;;;;;;;0.30;0.30;;;;;;;20.86;40.04;98478.09;4524499;28;20165;-56
2023/04/01 07:24:44;;;;;;;0.20;0.20;;;;;;;20.86;39.87;98475.25;4540496;28;20173;-56
2023/04/01 07:26:57;;;;;;;0.20;0.20;;;;;;;20.86;40.17;98475.25;4522607;28;20576;-58
2023/04/01 07:29:13;;;;;;;0.20;0.20;;;;;;;20.82;39.74;98468.69;4542617;28;20156;-56
2023/04/01 07:31:45;;;;;;;0.20;0.20;;;;;;;20.87;39.81;98479.72;4539214;28;20036;-56
2023/04/01 07:33:56;;;;;;;0.20;0.20;;;;;;;20.88;39.76;98483.41;4523323;28;20611;-56
2023/04/01 07:36:24;;;;;;;0.15;0.10;;;;;;;20.87;39.88;98479.72;4542266;28;20419;-56
2023/04/01 07:38:49;;;;;;;0.10;0.10;;;;;;;20.83;39.56;98476.06;4523324;28;20044;-56
2023/04/01 07:41:33;;;;;;;0.30;0.30;;;;;;;20.87;39.47;98494.06;4522304;28;20044;-57
2023/04/01 07:44:10;;;;;;;2.47;2.25;;;;;;;20.86;39.38;98489.56;4521716;28;20069;-56
2023/04/01 07:46:34;;;;;;;0.30;0.30;;;;;;;20.87;39.28;98494.06;4540014;28;20076;-57
2023/04/01 07:48:57;;;;;;;0.40;0.40;;;;;;;20.83;39.80;98492.47;4541399;28;20033;-57
2023/04/01 07:51:34;;;;;;;0.20;0.20;;;;;;;20.88;39.60;98497.75;4538484;28;20335;-56
2023/04/01 07:53:54;;;;;;;0.10;0.10;;;;;;;20.88;39.68;98494.88;4539622;28;20037;-56
2023/04/01 07:56:13;;;;;;;0.38;0.28;;;;;;;20.87;39.53;98513.34;4521876;28;20033;-56
2023/04/01 07:58:51;;;;;;;0.30;0.20;;;;;;;20.89;40.04;98505.94;4538432;28;20679;-56
2023/04/01 08:01:34;;;;;;;0.10;0.10;;;;;;;20.88;39.98;98515.78;4539213;28;20044;-57
2023/04/01 08:04:19;;;;;;;0.32;0.15;;;;;;;20.87;39.49;98516.22;4521086;28;20041;-56
2023/04/01 08:06:57;;;;;;;0.40;0.40;;;;;;;20.79;39.53;98506.81;4538683;28;20091;-55
2023/04/01 08:09:22;;;;;;;0.20;0.20;;;;;;;20.86;39.71;98521.13;4538842;28;20040;-55
2023/04/01 08:11:51;;;;;;;0.10;0.10;;;;;;;20.87;39.63;98531.34;4539886;28;20045;-56
2023/04/01 08:14:43;;;;;;;0.10;0.10;;;;;;;20.68;39.99;98500.31;4540940;28;20134;-56
2023/04/01 08:17:30;;;;;;;0.30;0.30;;;;;;;20.85;39.96;98528.09;4508792;28;20049;-56
2023/04/01 08:20:03;;;;;;;0.10;0.10;;;;;;;20.86;40.25;98529.72;4539125;28;20994;-56
2023/04/01 08:22:30;;;;;;;0.10;0.10;;;;;;;20.86;39.86;98532.59;4539472;28;20429;-56
2023/04/01 08:24:46;;;;;;;0.20;0.20;;;;;;;20.84;40.28;98537.91;4539310;28;20581;-55
2023/04/01 08:27:01;;;;;;;0.10;0.10;;;;;;;20.80;39.99;98537.13;4522571;28;20160;-56
2023/04/01 08:29:16;;;;;;;0.30;0.30;;;;;;;20.87;40.28;98544.88;4521578;28;20029;-55
2023/04/01 08:31:33;;;;;;;0.10;0.10;;;;;;;20.85;40.88;98542.44;4539369;28;20147;-55
2023/04/01 08:33:47;;;;;;;0.10;0.10;;;;;;;20.86;40.41;98546.09;4504898;28;20104;-56
2023/04/01 08:36:15;;;;;;;0.28;0.28;;;;;;;20.86;40.80;98548.97;4523387;28;20554;-56
2023/04/01 08:38:37;;;;;;;0.30;0.30;;;;;;;20.85;40.81;98553.91;4539675;28;20032;-56
2023/04/01 08:41:12;;;;;;;0.40;0.40;;;;;;;20.86;40.42;98548.97;4538876;28;20048;-56
2023/04/01 08:43:55;;;;;;;0.10;0.10;;;;;;;20.84;40.86;98552.25;4539666;28;20619;-56
2023/04/01 08:46:34;;;;;;;0.05;0.05;;;;;;;20.84;40.81;98552.25;4541664;28;20099;-56
2023/04/01 08:49:01;;;;;;;0.20;0.20;;;;;;;20.85;41.12;98545.28;4522172;28;20076;-56
2023/04/01 08:51:12;;;;;;;;;;;;;;;20.87;40.80;98548.53;4521720;28;20667;-57
2023/04/01 08:53:38;;;;;;;0.20;0.20;;;;;;;20.83;40.95;98549.81;4521062;28;19920;-56
2023/04/01 08:56:04;;;;;;;0.30;0.13;;;;;;;20.86;41.54;98549.78;4522934;28;20973;-56
2023/04/01 08:58:44;;;;;;;0.10;0.10;;;;;;;20.86;41.64;98555.53;4539093;28;20610;-55
2023/04/01 09:01:14;;;;;;;0.20;0.13;;;;;;;20.88;40.99;98561.66;4522546;28;20182;-56
2023/04/01 09:03:33;;;;;;;0.10;0.10;;;;;;;20.86;41.03;98564.13;4522934;28;20037;-56
2023/04/01 09:06:18;;;;;;;0.10;0.10;;;;;;;20.85;41.16;98562.50;4539418;28;20029;-56
2023/04/01 09:08:33;;;;;;;0.10;0.10;;;;;;;20.85;41.30;98565.38;4522244;28;20037;-56
2023/04/01 09:10:53;;;;;;;0.10;0.10;;;;;;;20.88;40.70;98570.25;4538605;28;20020;-55
2023/04/01 09:14:08;;;;;;;0.10;0.10;;;;;;;20.87;40.36;98570.69;4486611;28;20740;-56
2023/04/01 09:16:37;;;;;;;0.10;0.10;;;;;;;20.88;40.19;98567.41;4492130;28;20033;-55
2023/04/01 09:19:11;;;;;;;0.10;0.10;;;;;;;20.88;40.10;98567.41;4524415;28;20828;-54
2023/04/01 09:21:35;;;;;;;0.10;0.10;;;;;;;20.84;39.98;98569.44;4524766;28;20099;-56
2023/04/01 09:24:34;;;;;;;0.15;0.15;;;;;;;20.87;40.10;98574.34;4526631;28;20552;-55
2023/04/01 09:27:01;;;;;;;2.83;2.33;;;;;;;20.90;40.26;98576.38;4495762;28;20033;-55
2023/04/01 09:29:12;;;;;;;;;;;;;;;20.91;40.62;98580.06;4542519;28;20075;-56
2023/04/01 09:31:29;;;;;;;0.20;0.20;;;;;;;20.92;40.71;98578.81;4541737;28;19954;-56
2023/04/01 09:34:20;;;;;;;0.10;0.10;;;;;;;20.92;40.75;98585.38;4543750;28;20028;-56
2023/04/01 09:36:50;;;;;;;0.20;0.20;;;;;;;20.91;41.08;98583.75;4523227;28;20520;-56
2023/04/01 09:39:35;;;;;;;0.17;0.17;;;;;;;20.93;40.94;98587.00;4522688;28;20071;-58
2023/04/01 09:42:11;;;;;;;0.40;0.40;;;;;;;20.93;41.73;98589.09;4540170;28;20094;-56
2023/04/01 09:44:34;;;;;;;0.35;0.20;;;;;;;20.93;41.53;98597.69;4524854;28;20037;-55
2023/04/01 09:47:43;;;;;;;0.32;0.32;;;;;;;20.93;41.24;98598.47;4508774;28;20611;-56
2023/04/01 09:50:05;;;;;;;0.25;0.25;;;;;;;20.93;41.26;98600.56;4518581;28;20604;-55
2023/04/01 09:52:28;;;;;;;0.30;0.30;;;;;;;20.93;41.17;98604.22;4543058;28;20048;-56
2023/04/01 09:55:17;;;;;;;0.55;0.20;;;;;;;20.93;41.48;98607.09;4525404;28;20155;-56
2023/04/01 09:58:09;;;;;;;0.50;0.30;;;;;;;20.93;41.20;98612.81;4523769;28;20148;-55
2023/04/01 10:00:38;;;;;;;1.65;0.30;;;;;;;20.96;41.13;98609.19;4543284;28;20052;-56
2023/04/01 10:03:11;;;;;;;0.15;0.10;;;;;;;20.98;41.55;98617.38;4523648;28;20144;-55
2023/04/01 10:05:30;;;;;;;0.43;0.20;;;;;;;20.96;41.47;98617.78;4540210;28;20353;-56
2023/04/01 10:07:56;;;;;;;0.10;0.10;;;;;;;20.97;41.65;98619.41;4540445;28;20028;-56
2023/04/01 10:10:32;;;;;;;0.20;0.20;;;;;;;20.98;41.97;98623.09;4523004;28;20850;-57
2023/04/01 10:13:28;;;;;;;0.30;0.30;;;;;;;20.97;42.41;98625.13;4522642;28;20624;-56
2023/04/01 10:16:22;;;;;;;0.10;0.10;;;;;;;20.99;42.18;98637.03;4523411;28;20048;-56
2023/04/01 10:18:57;;;;;;;0.10;0.10;;;;;;;20.98;42.29;98635.38;4524143;28;20033;-56
2023/04/01 10:21:45;;;;;;;0.10;0.10;;;;;;;20.98;42.89;98635.38;4540877;28;20045;-56
2023/04/01 10:24:05;;;;;;;0.22;0.10;;;;;;;20.97;43.12;98633.75;4523632;28;20568;-56
2023/04/01 10:26:25;;;;;;;0.30;0.30;;;;;;;20.97;43.12;98639.47;4540602;28;20115;-56
2023/04/01 10:29:00;;;;;;;0.20;0.10;;;;;;;20.97;43.64;98633.75;4540333;28;20812;-56
2023/04/01 10:31:47;;;;;;;0.28;0.20;;;;;;;20.97;44.02;98636.59;4522044;28;20176;-56
2023/04/01 10:34:32;;;;;;;0.10;0.10;;;;;;;20.97;44.03;98636.59;4540400;28;20035;-55
2023/04/01 10:37:00;;;;;;;0.20;0.20;;;;;;;20.86;44.21;98618.59;4526570;28;20882;-57
2023/04/01 10:39:44;;;;;;;0.20;0.20;;;;;;;21.00;44.15;98638.63;4540682;28;20556;-59
2023/04/01 10:42:25;;;;;;;0.20;0.20;;;;;;;21.01;44.56;98640.25;4522553;28;20048;-56
2023/04/01 10:45:14;;;;;;;0.30;0.10;;;;;;;21.03;44.23;98636.97;4538399;28;20091;-57
2023/04/01 10:47:45;;;;;;;0.32;0.20;;;;;;;20.86;44.52;98615.75;4541361;28;20088;-57
2023/04/01 10:50:42;;;;;;;0.25;0.20;;;;;;;21.05;44.79;98637.38;4523780;28;20638;-57
2023/04/01 10:53:39;;;;;;;0.15;0.15;;;;;;;21.06;44.47;98642.69;4483597;28;20593;-57
2023/04/01 10:56:33;;;;;;;0.10;0.10;;;;;;;21.05;44.62;98629.59;4541129;28;20612;-57
2023/04/01 10:59:28;;;;;;;0.10;0.10;;;;;;;20.97;44.52;98630.88;4541039;28;20056;-56
2023/04/01 11:01:58;;;;;;;0.38;0.20;;;;;;;21.05;44.56;98643.94;4541759;28;20049;-57
2023/04/01 11:05:43;;;;;;;0.17;0.10;;;;;;;21.04;44.56;98642.28;4505465;28;20049;-57
2023/04/01 11:08:39;;;;;;;0.10;0.10;;;;;;;21.05;44.92;98646.00;4452528;28;20031;-57
2023/04/01 11:11:11;;;;;;;0.30;0.20;;;;;;;21.05;44.77;98641.09;4532719;28;20073;-57